Latest Weather Observations for Onslow Airport

IDW60801

Issued at 9:02 pm WST Sunday 21 December 2014 (issued every 30 minutes, with the page automatically refreshed every 10 minutes)

About weather observations | Map of weather stations | Latest weather observations for WA | Other Formats
Station Details ID: 005017 Name: ONSLOW AIRPORT Lat: -21.67 Lon: 115.11 Height: 10.5 m
Data from the previous 72 hours. | See also: Recent months at Onslow Airport
Date/Time
WST
Temp
°C
App
Temp
°C
Dew
Point
Rel
Hum
%
Delta-T
°C
Wind Press
QNH
hPa
Press
MSL
hPa
Rain
since 9 am
mm
Dir
 
Spd
km/h
Gust
km/h
Spd
kts
Gust
kts
21/09:00pm 26.7 24.8 18.6 61 5.2 W 26 35 14 19 1007.3 1007.2 0.0
21/08:30pm 26.4 24.4 18.3 61 5.2 W 26 41 14 22 1007.1 1007.0 0.0
21/08:00pm 26.0 23.8 18.7 64 4.7 W 28 37 15 20 1006.9 1006.8 0.0
21/07:30pm 25.6 23.1 19.7 70 3.8 W 32 39 17 21 1006.7 1006.6 0.0
21/07:00pm 25.8 23.3 20.1 71 3.7 WNW 33 43 18 23 1006.4 1006.3 0.0
21/06:30pm 26.3 23.9 20.4 70 3.9 WNW 33 44 18 24 1006.2 1006.1 0.0
21/06:00pm 26.9 24.5 21.0 70 3.9 WNW 35 43 19 23 1006.0 1005.9 0.0
21/05:30pm 27.3 24.3 20.6 67 4.4 WNW 37 44 20 24 1006.1 1006.0 0.0
21/05:00pm 27.7 24.8 20.8 66 4.6 WNW 37 44 20 24 1006.1 1006.0 0.0
21/04:30pm 28.7 26.5 20.7 62 5.3 NW 33 41 18 22 1006.3 1006.2 0.0
21/04:00pm 28.5 26.0 20.8 63 5.1 WNW 35 43 19 23 1006.3 1006.2 0.0
21/03:30pm 28.7 26.1 20.7 62 5.3 WNW 35 43 19 23 1006.5 1006.4 0.0
21/03:00pm 30.1 27.4 20.4 56 6.4 WNW 35 41 19 22 1006.8 1006.7 0.0
21/02:30pm 29.6 26.1 18.7 52 7.0 WNW 35 43 19 23 1007.0 1006.9 0.0
21/02:00pm 30.6 26.5 17.3 45 8.5 WNW 35 41 19 22 1007.1 1007.0 0.0
21/01:30pm 30.6 27.3 18.0 47 8.1 WNW 32 39 17 21 1007.4 1007.3 0.0
21/01:00pm 31.2 29.0 19.5 49 7.7 WNW 30 35 16 19 1007.6 1007.5 0.0
21/12:30pm 31.1 29.5 20.7 54 6.9 WNW 30 37 16 20 1007.9 1007.8 0.0
21/12:00pm 31.6 29.8 19.6 49 7.9 WNW 28 32 15 17 1008.2 1008.1 0.0
21/11:30am 30.9 28.8 18.9 48 7.8 WNW 28 32 15 17 1008.5 1008.4 0.0
21/11:00am 32.0 31.4 18.9 45 8.5 WNW 20 26 11 14 1008.8 1008.7 0.0
21/10:30am 32.1 31.4 18.7 45 8.7 WNW 20 24 11 13 1009.0 1008.9 0.0
21/10:00am 32.5 30.8 13.7 32 11.4 SW 15 20 8 11 1009.1 1009.0 0.0
21/09:30am 31.0 30.5 15.0 38 9.8 SSW 11 15 6 8 1009.1 1009.0 0.0
21/09:00am 29.4 28.6 16.2 44 8.2 SW 15 20 8 11 1009.3 1009.2 0.0
21/08:30am 28.4 27.2 16.0 47 7.7 SSW 17 20 9 11 1009.1 1009.0 0.0
21/08:00am 27.0 25.9 16.3 52 6.6 SSW 17 22 9 12 1009.2 1009.1 0.0
21/07:30am 25.7 24.2 16.8 58 5.5 SW 20 26 11 14 1009.2 1009.1 0.0
21/07:00am 24.3 22.0 16.6 62 4.7 SW 24 30 13 16 1009.2 1009.1 0.0
21/06:30am 23.4 21.4 16.4 64 4.3 SW 22 28 12 15 1009.1 1009.0 0.0
21/06:00am 22.8 21.2 16.6 68 3.8 SW 20 28 11 15 1008.9 1008.8 0.0
21/05:30am 22.7 21.3 16.5 68 3.8 SW 19 22 10 12 1009.1 1009.0 0.0
21/05:00am 22.9 21.9 16.7 68 3.8 SW 17 20 9 11 1008.9 1008.8 0.0
21/04:30am 23.1 21.7 16.6 67 4.0 SW 19 22 10 12 1008.6 1008.5 0.0
21/04:00am 23.3 22.1 17.1 68 3.8 SW 19 24 10 13 1008.4 1008.3 0.0
21/03:30am 23.6 22.3 17.3 67 3.9 SW 20 28 11 15 1008.2 1008.1 0.0
21/03:00am 23.9 22.8 17.2 66 4.2 WSW 19 26 10 14 1008.4 1008.3 0.0
21/02:30am 24.0 23.7 17.3 66 4.2 WSW 15 19 8 10 1008.4 1008.3 0.0
21/02:00am 24.3 24.0 17.3 65 4.4 WSW 15 19 8 10 1008.5 1008.4 0.0
21/01:30am 24.9 24.0 16.9 61 4.9 WSW 17 24 9 13 1008.5 1008.4 0.0
21/01:00am 25.2 23.9 16.9 60 5.1 WSW 19 24 10 13 1008.6 1008.5 0.0
21/12:30am 25.4 24.2 17.1 60 5.2 WSW 19 24 10 13 1008.7 1008.6 0.0
21/12:00am 25.6 24.5 17.3 60 5.2 WSW 19 24 10 13 1008.7 1008.6 0.0
 
Date/Time
WST
Temp
°C
App
Temp
°C
Dew
Point
Rel
Hum
%
Delta-T
°C
Wind Press
QNH
hPa
Press
MSL
hPa
Rain
since 9 am
mm
Dir
 
Spd
km/h
Gust
km/h
Spd
kts
Gust
kts
20/11:30pm 25.8 23.9 17.7 61 5.1 WSW 24 30 13 16 1008.9 1008.8 0.0
20/11:00pm 26.0 24.3 18.2 62 4.9 WSW 24 33 13 18 1008.9 1008.8 0.0
20/10:30pm 26.1 24.4 18.2 61 5.0 WSW 24 33 13 18 1008.9 1008.8 0.0
20/10:00pm 26.5 24.9 18.4 61 5.2 WSW 24 37 13 20 1008.7 1008.6 0.0
20/09:30pm 26.8 24.5 18.4 60 5.3 WSW 28 35 15 19 1008.5 1008.4 0.0
20/09:00pm 27.3 25.3 18.3 58 5.7 WSW 26 35 14 19 1008.2 1008.1 0.0
20/08:30pm 28.0 26.0 17.5 52 6.6 WSW 24 35 13 19 1007.9 1007.8 0.0
20/08:00pm 28.7 26.8 17.6 51 7.0 WSW 24 35 13 19 1007.7 1007.6 0.0
20/07:30pm 27.9 28.0 21.2 67 4.5 W 22 30 12 16 1007.4 1007.3 0.0
20/07:00pm 27.3 26.7 22.0 73 3.6 W 28 37 15 20 1007.2 1007.1 0.0
20/06:30pm 27.6 26.4 21.6 70 4.0 W 30 41 16 22 1006.8 1006.7 0.0
20/06:00pm 27.9 25.8 21.0 66 4.6 WNW 33 41 18 22 1006.8 1006.7 0.0
20/05:30pm 28.2 25.8 21.0 65 4.8 WNW 35 43 19 23 1006.7 1006.6 0.0
20/05:00pm 29.2 25.8 18.9 53 6.7 W 35 44 19 24 1006.6 1006.5 0.0
20/04:30pm 29.3 26.2 19.6 56 6.3 WNW 35 41 19 22 1006.7 1006.6 0.0
20/04:00pm 30.5 26.9 18.6 49 7.7 WNW 35 43 19 23 1006.8 1006.7 0.0
20/03:30pm 31.1 26.0 15.9 40 9.5 WNW 37 46 20 25 1006.9 1006.8 0.0
20/03:00pm 30.2 26.3 19.6 53 7.0 WNW 39 46 21 25 1007.4 1007.3 0.0
20/02:30pm 30.8 27.4 19.8 52 7.2 WNW 37 43 20 23 1007.7 1007.6 0.0
20/02:00pm 30.9 28.1 20.2 53 7.1 WNW 35 41 19 22 1008.0 1007.9 0.0
20/01:30pm 30.7 28.7 21.2 57 6.4 WNW 33 41 18 22 1008.5 1008.4 0.0
20/01:00pm 30.4 27.5 20.0 53 6.9 WNW 35 41 19 22 1008.8 1008.7 0.0
20/12:30pm 31.1 29.1 20.7 54 6.9 WNW 32 39 17 21 1009.4 1009.3 0.0
20/12:00pm 31.1 29.0 19.8 51 7.4 WNW 30 35 16 19 1009.6 1009.5 0.0
20/11:30am 31.3 30.4 19.9 50 7.5 WNW 24 30 13 16 1009.8 1009.7 0.0
20/11:00am 32.9 31.9 17.9 41 9.7 WNW 20 26 11 14 1010.2 1010.1 0.0
20/10:30am 32.9 33.8 17.5 39 9.9 W 9 22 5 12 1010.5 1010.4 0.0
20/10:00am 31.7 31.4 14.4 35 10.6 S 9 15 5 8 1011.0 1010.9 0.0
20/09:30am 31.4 31.9 16.6 41 9.3 SSE 9 15 5 8 1011.2 1011.1 0.0
20/09:00am 29.2 29.0 16.7 46 7.8 SW 13 22 7 12 1011.3 1011.2 -
20/08:30am 28.0 28.3 17.8 54 6.5 SSW 13 19 7 10 1011.4 1011.3 -
20/08:00am 26.7 25.9 18.0 59 5.5 SSW 19 24 10 13 1011.4 1011.3 -
20/07:30am 25.4 24.1 18.1 64 4.6 SSW 22 28 12 15 1011.5 1011.4 -
20/07:00am 24.3 22.9 18.0 68 4.0 SSW 22 30 12 16 1011.4 1011.3 -
20/06:30am 23.3 22.0 18.2 73 3.2 SW 22 28 12 15 1010.9 1010.8 -
20/06:00am 22.5 22.1 18.1 76 2.7 SW 17 24 9 13 1010.6 1010.5 -
20/05:30am 22.6 21.8 18.4 77 2.6 SW 20 26 11 14 1010.2 1010.1 -
20/05:00am 22.6 21.8 18.4 77 2.6 SW 20 26 11 14 1010.0 1009.9 -
20/04:30am 22.8 21.6 18.3 76 2.8 SW 22 28 12 15 1009.9 1009.8 -
20/04:00am 23.0 22.2 18.5 76 2.8 SW 20 24 11 13 1009.8 1009.7 -
20/03:30am 23.2 22.4 18.5 75 3.0 SW 20 24 11 13 1009.9 1009.8 -
20/03:00am 23.5 22.8 18.6 74 3.1 SW 20 24 11 13 1009.9 1009.8 -
20/02:30am 23.8 23.2 18.4 72 3.4 SW 19 24 10 13 1010.0 1009.9 -
20/02:00am 24.1 23.5 18.5 71 3.5 SW 19 22 10 12 1010.1 1010.0 -
20/01:30am 24.4 24.2 18.6 70 3.7 SW 17 22 9 12 1010.1 1010.0 -
20/01:00am 24.7 24.7 18.9 70 3.7 SW 17 19 9 10 1010.5 1010.4 -
20/12:30am 25.2 25.0 18.6 67 4.2 SW 17 20 9 11 1011.0 1010.9 0.0
20/12:00am 25.8 25.0 18.0 62 4.9 SW 19 24 10 13 1011.1 1011.0 0.0
 
Date/Time
WST
Temp
°C
App
Temp
°C
Dew
Point
Rel
Hum
%
Delta-T
°C
Wind Press
QNH
hPa
Press
MSL
hPa
Rain
since 9 am
mm
Dir
 
Spd
km/h
Gust
km/h
Spd
kts
Gust
kts
19/11:30pm 26.4 26.0 19.3 65 4.6 SW 20 26 11 14 1011.3 1011.2 0.0
19/11:00pm 25.2 26.1 19.3 70 3.8 W 13 15 7 8 1011.5 1011.4 0.0
19/10:30pm 25.6 26.6 19.5 69 3.9 W 13 17 7 9 1011.6 1011.5 0.0
19/10:00pm 26.0 26.8 19.9 69 4.0 W 15 19 8 10 1011.4 1011.3 0.0
19/09:30pm 26.1 26.6 20.0 69 4.0 W 17 20 9 11 1011.3 1011.2 0.0
19/09:00pm 26.1 25.9 19.7 68 4.1 W 20 24 11 13 1011.1 1011.0 0.0
19/08:30pm 26.2 25.9 19.6 67 4.3 W 20 28 11 15 1011.0 1010.9 0.0
19/08:00pm 26.2 26.2 20.1 69 4.0 WNW 20 28 11 15 1010.9 1010.8 0.0
19/07:30pm 26.4 25.8 19.8 67 4.3 WNW 22 26 12 14 1010.2 1010.1 0.0
19/07:00pm 26.8 25.7 19.4 64 4.8 WNW 24 30 13 16 1010.0 1009.9 0.0
19/06:30pm 27.4 26.2 20.0 64 4.8 WNW 26 33 14 18 1009.8 1009.7 0.0
19/06:00pm 28.1 25.8 19.3 58 5.7 WNW 30 37 16 20 1009.3 1009.2 0.0
19/05:30pm 28.3 27.2 21.8 68 4.4 WNW 30 37 16 20 1008.9 1008.8 0.0
19/05:00pm 28.7 27.3 21.2 64 5.0 WNW 30 35 16 19 1008.9 1008.8 0.0
19/04:30pm 29.5 28.5 21.2 61 5.5 WNW 28 37 15 20 1008.7 1008.6 0.0
19/04:00pm 29.8 29.4 22.3 64 5.1 WNW 28 33 15 18 1008.5 1008.4 0.0
19/03:30pm 30.7 29.5 21.5 58 6.2 WNW 30 37 16 20 1008.4 1008.3 0.0
19/03:00pm 30.3 28.9 21.9 60 5.7 WNW 32 37 17 20 1008.6 1008.5 0.0
19/02:30pm 30.7 27.9 19.1 50 7.6 WNW 32 35 17 19 1008.5 1008.4 0.0
19/02:00pm 31.2 29.3 20.2 52 7.3 WNW 30 35 16 19 1008.7 1008.6 0.0
19/01:30pm 31.0 28.5 18.0 45 8.3 WNW 28 33 15 18 1009.0 1008.9 0.0
19/01:00pm 30.1 27.2 18.8 50 7.3 WNW 32 37 17 20 1009.2 1009.1 0.0
19/12:30pm 30.4 28.6 21.2 58 6.2 WNW 32 35 17 19 1009.4 1009.3 0.0
19/12:00pm 30.7 29.3 21.2 57 6.4 WNW 30 33 16 18 1009.7 1009.6 0.0
19/11:30am 30.3 29.5 21.7 60 5.8 WNW 28 33 15 18 1010.1 1010.0 0.0
19/11:00am 29.9 28.9 21.3 60 5.8 WNW 28 33 15 18 1010.1 1010.0 0.0
19/10:30am 29.5 28.6 21.4 61 5.4 WNW 28 33 15 18 1010.4 1010.3 0.0
19/10:00am 30.0 29.7 21.9 62 5.5 WNW 26 32 14 17 1010.5 1010.4 0.0
19/09:30am 29.8 30.2 21.7 61 5.5 WNW 22 26 12 14 1010.6 1010.5 0.0
19/09:00am 30.1 30.5 20.6 56 6.3 WNW 19 22 10 12 1010.6 1010.5 0.0
19/08:30am 29.4 29.4 18.2 51 7.2 SW 15 19 8 10 1010.5 1010.4 0.0
19/08:00am 27.9 28.3 18.9 58 5.8 WSW 15 20 8 11 1010.5 1010.4 0.0
19/07:30am 26.7 26.6 18.8 62 5.1 WSW 17 20 9 11 1010.3 1010.2 0.0
19/07:00am 25.4 25.9 19.3 69 3.9 WSW 15 20 8 11 1009.8 1009.7 0.0
19/06:30am 24.5 25.7 19.8 75 3.0 WSW 13 19 7 10 1009.6 1009.5 0.0
19/06:00am 23.0 24.3 19.2 79 2.4 W 11 13 6 7 1009.3 1009.2 0.0
19/05:30am 22.7 23.8 18.9 79 2.4 W 11 15 6 8 1008.9 1008.8 0.0
19/05:00am 22.9 23.6 18.9 78 2.5 WSW 13 17 7 9 1008.5 1008.4 0.0
19/04:30am 23.1 23.7 18.6 76 2.8 W 13 15 7 8 1008.4 1008.3 0.0
19/04:00am 23.3 23.8 18.4 74 3.1 W 13 17 7 9 1008.3 1008.2 0.0
19/03:30am 23.3 23.5 17.7 71 3.5 W 13 17 7 9 1008.2 1008.1 0.0
19/03:00am 23.5 23.9 17.3 68 3.8 W 11 13 6 7 1008.3 1008.2 0.0
19/02:30am 23.9 23.7 16.7 64 4.4 WSW 13 15 7 8 1008.4 1008.3 0.0
19/02:00am 24.1 24.2 16.6 63 4.6 W 11 13 6 7 1008.3 1008.2 0.0
19/01:30am 25.0 24.6 16.2 58 5.4 WSW 13 19 7 10 1008.3 1008.2 0.0
19/01:00am 25.4 24.5 16.8 59 5.3 SW 17 20 9 11 1008.4 1008.3 0.0
19/12:30am 25.8 24.7 17.2 59 5.4 SW 19 22 10 12 1008.3 1008.2 0.0
19/12:00am 26.1 24.9 17.5 59 5.4 SW 20 24 11 13 1008.6 1008.5 0.0
 
Date/Time
WST
Temp
°C
App
Temp
°C
Dew
Point
Rel
Hum
%
Delta-T
°C
Wind Press
QNH
hPa
Press
MSL
hPa
Rain
since 9 am
mm
Dir
 
Spd
km/h
Gust
km/h
Spd
kts
Gust
kts
18/11:30pm 26.2 25.4 17.0 57 5.7 SW 17 20 9 11 1008.6 1008.5 0.0
18/11:00pm 26.9 25.2 17.1 55 6.1 SW 22 28 12 15 1008.5 1008.4 0.0
18/10:30pm 27.4 26.2 17.6 55 6.2 SW 20 28 11 15 1008.1 1008.0 0.0
18/10:00pm 27.6 27.3 18.3 57 5.9 WSW 17 22 9 12 1008.0 1007.9 0.0
18/09:30pm 26.9 26.9 19.8 65 4.6 W 19 22 10 12 1007.9 1007.8 0.0

Other Formats:

Comma delimited format used in spreadsheet applications
http://www.bom.gov.au/fwo/IDW60801/IDW60801.95305.axf

JavaScript Object Notation format (JSON) in row-major order
http://www.bom.gov.au/fwo/IDW60801/IDW60801.95305.json